createdAt,value
2018-12-02T00:00:54.871Z,94.80
2018-12-02T00:04:00.236Z,95.00
2018-12-02T00:07:05.668Z,95.00
2018-12-02T00:10:13.677Z,95.00
2018-12-02T00:13:19.047Z,94.80
2018-12-02T00:16:24.384Z,94.90
2018-12-02T00:19:29.744Z,95.00
2018-12-02T00:22:35.163Z,94.90
2018-12-02T00:25:40.573Z,95.00
2018-12-02T00:28:45.948Z,95.50
2018-12-02T00:31:51.464Z,95.80
2018-12-02T00:34:56.851Z,96.00
2018-12-02T00:38:03.484Z,96.10
2018-12-02T00:41:08.908Z,96.10
2018-12-02T00:44:14.510Z,96.30
2018-12-02T00:47:19.845Z,96.20
2018-12-02T00:50:25.591Z,96.30
2018-12-02T00:53:30.940Z,96.20
2018-12-02T00:56:36.309Z,96.40
2018-12-02T00:59:41.696Z,96.40
2018-12-02T01:02:48.413Z,96.50
2018-12-02T01:05:53.788Z,96.60
2018-12-02T01:08:59.223Z,96.40
2018-12-02T01:12:04.782Z,96.50
2018-12-02T01:15:17.978Z,96.30
2018-12-02T01:18:23.345Z,96.20
2018-12-02T01:21:28.821Z,96.30
2018-12-02T01:24:34.200Z,96.10
2018-12-02T01:27:39.932Z,96.20
2018-12-02T01:30:45.390Z,96.00
2018-12-02T01:33:51.409Z,95.90
2018-12-02T01:36:57.257Z,95.60
2018-12-02T01:40:02.721Z,95.70
2018-12-02T01:43:20.030Z,95.50
2018-12-02T01:46:25.512Z,95.50
2018-12-02T01:49:31.688Z,95.70
2018-12-02T01:52:37.142Z,95.40
2018-12-02T01:55:43.236Z,95.20
2018-12-02T01:58:48.600Z,95.30
2018-12-02T02:01:53.992Z,95.40
2018-12-02T02:04:59.524Z,95.20
2018-12-02T02:08:05.528Z,95.20
2018-12-02T02:11:10.936Z,95.10
2018-12-02T02:14:16.353Z,95.30
2018-12-02T02:17:21.716Z,95.80
2018-12-02T02:20:27.456Z,96.30
2018-12-02T02:23:32.826Z,96.30
2018-12-02T02:26:38.267Z,96.40
2018-12-02T02:29:43.700Z,96.60
2018-12-02T02:32:49.559Z,96.40
2018-12-02T02:35:54.908Z,96.40
2018-12-02T02:39:00.269Z,96.40
2018-12-02T02:42:06.488Z,96.60
2018-12-02T02:45:13.089Z,96.30
2018-12-02T02:48:18.465Z,96.30
2018-12-02T02:51:24.036Z,96.30
2018-12-02T02:54:29.440Z,96.10
2018-12-02T02:57:34.912Z,96.30
2018-12-02T03:00:40.769Z,96.40
2018-12-02T03:03:46.213Z,96.40
2018-12-02T03:06:51.661Z,96.30
2018-12-02T03:09:57.093Z,96.20
2018-12-02T03:13:02.559Z,96.10
2018-12-02T03:16:08.302Z,96.00
2018-12-02T03:19:13.676Z,96.00
2018-12-02T03:22:19.332Z,96.10
2018-12-02T03:25:26.635Z,96.00
2018-12-02T03:28:32.063Z,95.80
2018-12-02T03:31:37.629Z,95.80
2018-12-02T03:34:42.965Z,95.60
2018-12-02T03:37:49.058Z,95.40
2018-12-02T03:40:54.461Z,95.30
2018-12-02T03:43:59.913Z,95.10
2018-12-02T03:47:05.428Z,95.10
2018-12-02T03:50:17.816Z,94.80
2018-12-02T03:53:21.005Z,94.90
2018-12-02T03:56:26.425Z,94.90
2018-12-02T03:59:31.876Z,94.90
2018-12-02T04:02:37.420Z,94.70
2018-12-02T04:05:42.740Z,94.50
2018-12-02T04:08:48.103Z,94.60
2018-12-02T04:11:53.695Z,94.50
2018-12-02T04:14:59.104Z,94.40
2018-12-02T04:18:04.818Z,94.30
2018-12-02T04:21:10.348Z,94.10
2018-12-02T04:24:15.773Z,93.90
2018-12-02T04:27:21.212Z,93.90
2018-12-02T04:30:26.772Z,93.80
2018-12-02T04:33:32.221Z,93.70
2018-12-02T04:36:37.660Z,93.60
2018-12-02T04:39:43.219Z,93.60
2018-12-02T04:42:48.656Z,93.60
2018-12-02T04:45:54.113Z,93.50
2018-12-02T04:48:59.972Z,93.30
2018-12-02T04:52:05.709Z,93.20
2018-12-02T04:55:11.828Z,93.00
2018-12-02T04:58:17.252Z,93.00
2018-12-02T05:01:22.792Z,93.00
2018-12-02T05:04:28.241Z,92.90
2018-12-02T05:07:33.763Z,92.90
2018-12-02T05:10:39.153Z,92.80
2018-12-02T05:13:44.510Z,93.10
2018-12-02T05:16:49.928Z,93.20
2018-12-02T05:19:55.377Z,93.20
2018-12-02T05:23:00.913Z,93.20
2018-12-02T05:26:06.823Z,93.00
2018-12-02T05:29:12.272Z,92.80
2018-12-02T05:32:17.764Z,93.10
2018-12-02T05:35:23.233Z,93.10
2018-12-02T05:38:28.552Z,93.80
2018-12-02T05:41:39.263Z,93.70
2018-12-02T05:44:44.714Z,93.90
2018-12-02T05:47:50.185Z,93.80
2018-12-02T05:50:55.696Z,93.90
2018-12-02T05:54:01.315Z,93.70
2018-12-02T05:57:07.017Z,93.60
2018-12-02T06:00:14.923Z,93.50
2018-12-02T06:03:20.444Z,93.50
2018-12-02T06:06:25.828Z,93.60
2018-12-02T06:09:31.243Z,93.70
2018-12-02T06:12:36.907Z,93.60
2018-12-02T06:15:42.302Z,93.80
2018-12-02T06:18:47.808Z,93.70
2018-12-02T06:21:53.156Z,93.80
2018-12-02T06:24:58.532Z,93.70
2018-12-02T06:28:04.228Z,93.90
2018-12-02T06:31:09.732Z,94.00
2018-12-02T06:34:15.132Z,93.80
2018-12-02T06:37:20.521Z,94.10
2018-12-02T06:40:28.413Z,94.00
2018-12-02T06:43:33.740Z,93.90
2018-12-02T06:46:39.105Z,93.90
2018-12-02T06:49:44.528Z,93.80
2018-12-02T06:52:50.003Z,93.80
2018-12-02T06:56:02.299Z,94.10
2018-12-02T06:59:49.508Z,95.90
2018-12-02T07:03:07.600Z,97.10
2018-12-02T07:06:12.985Z,97.50
2018-12-02T07:09:18.904Z,98.10
2018-12-02T07:12:23.827Z,98.10
2018-12-02T07:15:29.255Z,99.00
2018-12-02T07:18:36.466Z,98.90
2018-12-02T07:21:42.051Z,99.60
2018-12-02T07:24:47.399Z,99.80
2018-12-02T07:27:52.816Z,99.90
2018-12-02T07:30:58.425Z,99.90
2018-12-02T07:34:03.816Z,99.90
2018-12-02T07:37:19.699Z,99.70
2018-12-02T07:40:30.427Z,99.70
2018-12-02T07:43:35.787Z,99.90
2018-12-02T07:46:41.168Z,99.90
2018-12-02T07:49:46.560Z,99.90
2018-12-02T07:52:52.081Z,99.90
2018-12-02T07:55:57.508Z,99.90
2018-12-02T07:59:02.900Z,99.60
2018-12-02T08:02:09.057Z,99.90
2018-12-02T08:05:16.627Z,99.90
2018-12-02T08:08:22.280Z,99.90
2018-12-02T08:11:27.927Z,99.90
2018-12-02T08:14:33.294Z,99.90
2018-12-02T08:17:39.115Z,99.90
2018-12-02T08:20:44.624Z,99.90
2018-12-02T08:23:50.035Z,99.80
2018-12-02T08:26:55.355Z,99.90
2018-12-02T08:30:00.733Z,99.90
2018-12-02T08:33:06.277Z,99.90
2018-12-02T08:36:11.624Z,99.90
2018-12-02T08:39:17.085Z,99.90
2018-12-02T08:42:22.600Z,99.90
2018-12-02T08:45:28.376Z,99.90
2018-12-02T08:48:33.825Z,99.90
2018-12-02T08:51:39.560Z,99.90
2018-12-02T08:54:44.928Z,99.90
2018-12-02T08:57:52.432Z,99.90
2018-12-02T09:00:57.997Z,99.90
2018-12-02T09:04:03.403Z,99.90
2018-12-02T09:07:08.763Z,99.90
2018-12-02T09:10:16.439Z,99.90
2018-12-02T09:13:21.895Z,99.90
2018-12-02T09:16:27.237Z,99.90
2018-12-02T09:19:32.555Z,99.90
2018-12-02T09:22:38.280Z,99.90
2018-12-02T09:25:43.735Z,99.90
2018-12-02T09:28:49.147Z,99.90
2018-12-02T09:31:54.527Z,99.90
2018-12-02T09:34:59.975Z,99.90
2018-12-02T09:38:06.053Z,99.90
2018-12-02T09:41:11.597Z,99.90
2018-12-02T09:44:17.004Z,99.60
2018-12-02T09:47:22.364Z,99.90
2018-12-02T09:50:27.848Z,99.90
2018-12-02T09:53:33.252Z,99.90
2018-12-02T09:56:38.642Z,99.90
2018-12-02T09:59:44.139Z,99.90
2018-12-02T10:02:49.926Z,99.80
2018-12-02T10:05:55.686Z,99.90
2018-12-02T10:09:01.016Z,99.80
2018-12-02T10:12:06.707Z,99.90
2018-12-02T10:15:13.940Z,99.40
2018-12-02T10:18:19.307Z,99.90
2018-12-02T10:21:25.578Z,99.80
2018-12-02T10:24:31.020Z,99.90
2018-12-02T10:27:36.376Z,99.80
2018-12-02T10:30:42.659Z,99.80
2018-12-02T10:33:47.995Z,99.90
2018-12-02T10:36:53.483Z,99.90
2018-12-02T10:39:59.467Z,99.90
2018-12-02T10:43:04.874Z,99.90
2018-12-02T10:46:10.214Z,99.90
2018-12-02T10:49:15.596Z,99.90
2018-12-02T10:52:21.082Z,99.90
2018-12-02T10:55:43.876Z,99.80
2018-12-02T10:58:49.183Z,99.90
2018-12-02T11:01:58.719Z,99.90
2018-12-02T11:05:04.191Z,99.90
2018-12-02T11:08:09.540Z,99.90
2018-12-02T11:14:44.563Z,99.90
2018-12-02T11:17:49.930Z,99.90
2018-12-02T11:20:55.320Z,99.90
2018-12-02T11:24:01.895Z,99.90
2018-12-02T11:27:07.972Z,99.90
2018-12-02T11:30:16.243Z,99.90
2018-12-02T11:33:21.708Z,99.90
2018-12-02T11:36:27.055Z,99.90
2018-12-02T11:39:32.462Z,99.90
2018-12-02T11:42:37.867Z,99.90
2018-12-02T11:45:43.227Z,99.90
2018-12-02T11:48:48.576Z,99.90
2018-12-02T11:51:53.980Z,99.90
2018-12-02T11:54:59.430Z,99.90
2018-12-02T11:58:05.096Z,99.90
2018-12-02T12:01:10.536Z,99.90
2018-12-02T12:04:15.887Z,99.90
2018-12-02T12:07:21.229Z,99.90
2018-12-02T12:10:28.767Z,99.90
2018-12-02T12:13:34.285Z,99.90
2018-12-02T12:16:39.707Z,99.90
2018-12-02T12:19:47.200Z,99.90
2018-12-02T12:22:52.784Z,99.90
2018-12-02T12:25:58.127Z,99.90
2018-12-02T12:29:03.572Z,99.90
2018-12-02T12:32:09.128Z,99.90
2018-12-02T12:35:16.386Z,99.90
2018-12-02T12:38:22.397Z,99.90
2018-12-02T12:41:27.083Z,99.90
2018-12-02T12:44:32.437Z,99.90
2018-12-02T12:47:38.620Z,99.90
2018-12-02T12:50:44.076Z,99.90
2018-12-02T12:53:49.500Z,99.90
2018-12-02T12:56:54.943Z,99.90
2018-12-02T13:00:00.940Z,99.90
2018-12-02T13:03:07.171Z,99.90
2018-12-02T13:06:12.491Z,99.90
2018-12-02T13:09:17.864Z,99.90
2018-12-02T13:12:23.308Z,99.90
2018-12-02T13:15:28.871Z,99.90
2018-12-02T13:18:34.350Z,99.90
2018-12-02T13:21:39.698Z,99.90
2018-12-02T13:24:45.108Z,99.90
2018-12-02T13:27:50.667Z,99.90
2018-12-02T13:30:56.042Z,99.90
2018-12-02T13:34:01.576Z,99.90
2018-12-02T13:37:07.121Z,99.90
2018-12-02T13:40:15.943Z,99.90
2018-12-02T13:43:24.009Z,99.90
2018-12-02T13:46:29.381Z,99.90
2018-12-02T13:49:34.853Z,99.90
2018-12-02T13:52:40.308Z,99.90
2018-12-02T13:55:46.872Z,99.90
2018-12-02T13:58:53.081Z,99.90
2018-12-02T14:01:59.228Z,99.90
2018-12-02T14:05:05.260Z,99.90
2018-12-02T14:08:11.920Z,99.90
2018-12-02T14:11:17.700Z,99.90
2018-12-02T14:14:23.352Z,99.90
2018-12-02T14:17:31.161Z,99.90
2018-12-02T14:20:36.980Z,99.90
2018-12-02T14:23:44.196Z,99.90
2018-12-02T14:26:50.417Z,99.90
2018-12-02T14:29:57.535Z,99.90
2018-12-02T14:33:03.013Z,99.90
2018-12-02T14:36:08.467Z,99.90
2018-12-02T14:39:14.658Z,99.90
2018-12-02T14:42:20.241Z,99.90
2018-12-02T14:45:25.656Z,99.90
2018-12-02T14:48:31.040Z,99.90
2018-12-02T14:51:36.681Z,99.90
2018-12-02T14:54:42.160Z,99.90
2018-12-02T14:57:47.663Z,99.90
2018-12-02T15:00:53.076Z,99.90
2018-12-02T15:03:59.285Z,99.90
2018-12-02T15:07:05.227Z,99.90
2018-12-02T15:10:16.569Z,99.90
2018-12-02T15:13:21.930Z,99.90
2018-12-02T15:16:27.309Z,99.90
2018-12-02T15:19:32.719Z,99.90
2018-12-02T15:22:38.482Z,99.90
2018-12-02T15:25:44.048Z,99.90
2018-12-02T15:28:49.588Z,99.90
2018-12-02T15:31:55.226Z,99.90
2018-12-02T15:35:00.669Z,99.90
2018-12-02T15:38:06.851Z,99.90
2018-12-02T15:41:12.297Z,99.90
2018-12-02T15:44:17.808Z,99.90
2018-12-02T15:47:23.197Z,99.90
2018-12-02T15:50:28.655Z,99.90
2018-12-02T15:53:34.117Z,99.90
2018-12-02T15:56:39.546Z,99.90
2018-12-02T15:59:44.860Z,99.90
2018-12-02T16:02:50.447Z,99.90
2018-12-02T16:05:56.550Z,99.90
2018-12-02T16:09:01.885Z,99.90
2018-12-02T16:12:08.021Z,99.90
2018-12-02T16:15:15.939Z,99.90
2018-12-02T16:18:21.401Z,99.90
2018-12-02T16:21:26.840Z,99.90
2018-12-02T16:24:32.209Z,99.90
2018-12-02T16:27:37.640Z,99.90
2018-12-02T16:30:43.268Z,99.90
2018-12-02T16:33:48.748Z,99.80
2018-12-02T16:36:54.168Z,99.80
2018-12-02T16:39:59.601Z,99.90
2018-12-02T16:43:05.539Z,99.80
2018-12-02T16:46:10.900Z,99.90
2018-12-02T16:49:16.387Z,99.90
2018-12-02T16:52:21.844Z,99.90
2018-12-02T16:55:30.884Z,99.90
2018-12-02T16:58:44.807Z,99.90
2018-12-02T17:01:54.657Z,99.90
2018-12-02T17:05:00.104Z,99.90
2018-12-02T17:08:05.879Z,99.90
2018-12-02T17:11:11.335Z,99.90
2018-12-02T17:14:16.760Z,99.90
2018-12-02T17:17:22.231Z,99.90
2018-12-02T17:20:27.637Z,99.90
2018-12-02T17:23:33.109Z,99.90
2018-12-02T17:26:38.731Z,99.70
2018-12-02T17:29:44.495Z,99.80
2018-12-02T17:32:49.963Z,99.90
2018-12-02T17:35:55.408Z,99.60
2018-12-02T17:39:09.065Z,99.70
2018-12-02T17:42:14.916Z,99.70
2018-12-02T17:45:20.956Z,99.70
2018-12-02T17:48:26.485Z,99.80
2018-12-02T17:51:31.953Z,99.80
2018-12-02T17:54:37.448Z,99.60
2018-12-02T17:57:42.845Z,99.60
2018-12-02T18:00:48.346Z,99.90
2018-12-02T18:03:53.786Z,99.60
2018-12-02T18:06:59.274Z,99.40
2018-12-02T18:10:09.420Z,99.40
2018-12-02T18:13:14.844Z,99.30
2018-12-02T18:16:20.275Z,99.10
2018-12-02T18:19:25.720Z,99.10
2018-12-02T18:22:31.181Z,98.90
2018-12-02T18:25:36.614Z,98.80
2018-12-02T18:28:42.706Z,98.90
2018-12-02T18:31:48.108Z,99.00
2018-12-02T18:34:53.680Z,99.10
2018-12-02T18:38:02.992Z,99.40
2018-12-02T18:41:16.675Z,99.20
2018-12-02T18:44:22.073Z,99.40
2018-12-02T18:47:27.560Z,99.20
2018-12-02T18:50:33.337Z,99.20
2018-12-02T18:53:38.869Z,99.20
2018-12-02T18:56:44.609Z,99.60
2018-12-02T18:59:49.976Z,99.20
2018-12-02T19:02:57.887Z,99.20
2018-12-02T19:06:03.398Z,99.00
2018-12-02T19:09:12.073Z,99.10
2018-12-02T19:12:17.523Z,99.20
2018-12-02T19:15:23.377Z,99.30
2018-12-02T19:18:29.192Z,99.20
2018-12-02T19:21:34.696Z,99.10
2018-12-02T19:24:40.232Z,99.10
2018-12-02T19:27:45.688Z,99.20
2018-12-02T19:30:51.087Z,99.30
2018-12-02T19:33:58.485Z,99.40
2018-12-02T19:37:07.404Z,99.40
2018-12-02T19:40:16.724Z,99.50
2018-12-02T19:43:22.426Z,99.60
2018-12-02T19:46:27.876Z,99.80
2018-12-02T19:49:33.245Z,99.90
2018-12-02T19:52:38.884Z,99.90
2018-12-02T19:55:44.327Z,99.90
2018-12-02T19:58:49.776Z,99.90
2018-12-02T20:01:55.653Z,99.90
2018-12-02T20:05:01.061Z,99.90
2018-12-02T20:08:07.665Z,99.90
2018-12-02T20:11:13.152Z,99.90
2018-12-02T20:14:18.555Z,99.90
2018-12-02T20:17:23.947Z,99.90
2018-12-02T20:20:35.676Z,99.90
2018-12-02T20:23:46.423Z,99.90
2018-12-02T20:26:51.800Z,99.90
2018-12-02T20:29:57.294Z,99.90
2018-12-02T20:33:02.745Z,99.90
2018-12-02T20:36:09.102Z,99.90
2018-12-02T20:39:14.612Z,99.90
2018-12-02T20:42:20.084Z,99.90
2018-12-02T20:45:25.444Z,99.90
2018-12-02T20:48:30.906Z,99.90
2018-12-02T20:51:36.328Z,99.90
2018-12-02T20:54:41.785Z,99.90
2018-12-02T20:57:47.864Z,99.90
2018-12-02T21:00:53.256Z,99.90
2018-12-02T21:03:59.647Z,99.90
2018-12-02T21:07:06.163Z,99.90
2018-12-02T21:10:12.895Z,99.90
2018-12-02T21:13:18.283Z,99.90
2018-12-02T21:16:25.865Z,99.80
2018-12-02T21:19:31.256Z,99.80
2018-12-02T21:22:36.761Z,99.80
2018-12-02T21:25:42.306Z,99.90
2018-12-02T21:28:47.696Z,99.80
2018-12-02T21:31:53.160Z,99.60
2018-12-02T21:34:58.678Z,99.60
2018-12-02T21:38:04.048Z,99.70
2018-12-02T21:41:09.528Z,99.70
2018-12-02T21:44:15.000Z,99.50
2018-12-02T21:47:21.361Z,99.50
2018-12-02T21:50:30.590Z,99.40
2018-12-02T21:53:36.056Z,99.50
2018-12-02T21:56:41.491Z,99.40
2018-12-02T21:59:46.865Z,99.30
2018-12-02T22:02:53.896Z,99.30
2018-12-02T22:05:59.268Z,99.20
2018-12-02T22:09:06.893Z,99.20
2018-12-02T22:12:12.436Z,99.10
2018-12-02T22:15:17.800Z,98.90
2018-12-02T22:18:23.180Z,98.90
2018-12-02T22:21:28.617Z,98.90
2018-12-02T22:24:34.133Z,98.90
2018-12-02T22:27:39.600Z,99.00
2018-12-02T22:30:45.189Z,98.90
2018-12-02T22:33:50.511Z,99.20
2018-12-02T22:36:59.835Z,98.80
2018-12-02T22:40:13.572Z,98.70
2018-12-02T22:43:19.022Z,98.70
2018-12-02T22:46:24.888Z,98.60
2018-12-02T22:49:30.320Z,98.60
2018-12-02T22:52:35.867Z,98.90
2018-12-02T22:55:41.261Z,98.60
2018-12-02T22:58:46.660Z,98.60
2018-12-02T23:01:57.332Z,98.70
2018-12-02T23:05:02.783Z,98.60
2018-12-02T23:08:08.931Z,98.50
2018-12-02T23:11:14.401Z,98.50
2018-12-02T23:14:19.844Z,98.50
2018-12-02T23:17:25.273Z,98.50
2018-12-02T23:20:30.764Z,98.50
2018-12-02T23:23:36.282Z,98.50
2018-12-02T23:26:41.758Z,98.30
2018-12-02T23:29:47.616Z,98.20
2018-12-02T23:32:53.556Z,98.00
2018-12-02T23:35:59.029Z,97.90
2018-12-02T23:39:04.803Z,98.10
2018-12-02T23:42:10.337Z,97.70
2018-12-02T23:45:17.236Z,97.90
2018-12-02T23:48:22.624Z,98.00
2018-12-02T23:51:28.117Z,97.90
2018-12-02T23:54:33.517Z,97.40
2018-12-02T23:57:39.030Z,97.30
